Terminal Aerodrome Forecast
Issued by NWS

Home | Current Version | Previous Version | Text Only | Print | Product List | Glossary On
Versions: 1 2 3 4 5 6 7 8 9 10 11 12 13 14 15
000
FTUS46 KPDT 031140
TAFYKM
TAF
KYKM 031140Z 0312/0412 27005KT P6SM SCT150 BKN250
     FM032100 30008G15KT P6SM SCT120 BKN200
     FM040300 30007KT P6SM FEW150 SCT250=

USA.gov is the U.S. government's official web portal to all federal, state and local government web resources and services.